Terminal Aerodrome Forecast
Issued by NWS

Home | Current Version | Previous Version | Graphics & Text | Print | Product List | Glossary On
Versions: 1 2 3 4 5 6 7 8 9 10 11 12 13 14 15 16 17 18 19 20 21 22 23 24 25 26
181
FTUS43 KBIS 281733
TAFJMS
TAF
KJMS 281733Z 2818/2918 03006KT P6SM OVC016
     FM281900 05006KT P6SM BKN030
     FM282200 06007KT P6SM SCT150
     FM290800 VRB03KT P6SM SCT200=

USA.gov is the U.S. government's official web portal to all federal, state and local government web resources and services.